createdAt,value
2023-01-19T00:00:58.875Z,6.70
2023-01-19T00:02:01.487Z,6.05
2023-01-19T00:03:04.635Z,6.15
2023-01-19T00:04:07.303Z,6.53
2023-01-19T00:05:11.352Z,7.13
2023-01-19T00:06:14.411Z,5.90
2023-01-19T00:07:16.951Z,5.32
2023-01-19T00:08:19.753Z,5.55
2023-01-19T00:09:25.354Z,5.72
2023-01-19T00:10:27.980Z,5.43
2023-01-19T00:11:29.869Z,5.57
2023-01-19T00:12:32.729Z,5.55
2023-01-19T00:13:34.878Z,5.70
2023-01-19T00:14:37.601Z,5.13
2023-01-19T00:15:40.097Z,5.38
2023-01-19T00:16:42.794Z,5.53
2023-01-19T00:17:47.149Z,5.82
2023-01-19T00:18:51.054Z,5.80
2023-01-19T00:19:52.913Z,6.07
2023-01-19T00:20:55.672Z,5.20
2023-01-19T00:21:57.899Z,5.97
2023-01-19T00:23:00.546Z,5.88
2023-01-19T00:24:07.001Z,5.80
2023-01-19T00:25:09.131Z,5.82
2023-01-19T00:26:11.141Z,6.40
2023-01-19T00:27:13.896Z,5.57
2023-01-19T00:28:16.614Z,5.95
2023-01-19T00:29:20.394Z,5.18
2023-01-19T00:30:21.903Z,6.07
2023-01-19T00:31:26.746Z,5.47
2023-01-19T00:32:28.937Z,5.90
2023-01-19T00:33:30.943Z,5.40
2023-01-19T00:34:39.902Z,6.00
2023-01-19T00:35:47.765Z,5.68
2023-01-19T00:36:52.361Z,6.13
2023-01-19T00:37:53.875Z,6.55
2023-01-19T00:38:55.934Z,5.70
2023-01-19T00:39:58.479Z,6.97
2023-01-19T00:41:00.894Z,5.93
2023-01-19T00:42:22.758Z,5.97
2023-01-19T00:43:24.922Z,6.00
2023-01-19T00:44:26.898Z,5.72
2023-01-19T00:45:29.027Z,6.50
2023-01-19T00:46:30.918Z,5.90
2023-01-19T00:47:36.050Z,5.78
2023-01-19T00:48:38.690Z,5.10
2023-01-19T00:49:40.932Z,5.45
2023-01-19T00:50:43.905Z,5.43
2023-01-19T00:51:48.145Z,5.95
2023-01-19T00:52:52.338Z,4.68
2023-01-19T00:53:56.901Z,6.35
2023-01-19T00:54:58.347Z,4.60
2023-01-19T00:57:03.552Z,5.13
2023-01-19T00:58:07.390Z,5.13
2023-01-19T00:59:10.697Z,4.88
2023-01-19T01:00:17.069Z,5.07
2023-01-19T01:01:19.663Z,4.97
2023-01-19T01:02:22.057Z,5.05
2023-01-19T01:03:28.418Z,4.45
2023-01-19T01:04:33.416Z,6.13
2023-01-19T01:05:34.970Z,5.95
2023-01-19T01:06:36.945Z,6.20
2023-01-19T01:07:41.335Z,5.75
2023-01-19T01:08:42.813Z,5.40
2023-01-19T01:09:46.865Z,5.22
2023-01-19T01:10:48.334Z,5.20
2023-01-19T01:11:49.869Z,5.35
2023-01-19T01:12:55.925Z,5.15
2023-01-19T01:14:01.598Z,5.28
2023-01-19T01:15:04.883Z,5.00
2023-01-19T01:16:12.448Z,5.03
2023-01-19T01:17:14.963Z,5.50
2023-01-19T01:18:18.233Z,5.57
2023-01-19T01:19:24.014Z,5.03
2023-01-19T01:20:28.253Z,6.07
2023-01-19T01:21:30.880Z,4.88
2023-01-19T01:22:32.919Z,4.80
2023-01-19T01:23:38.053Z,4.82
2023-01-19T01:24:40.001Z,5.25
2023-01-19T01:25:42.665Z,5.82
2023-01-19T01:26:48.635Z,4.95
2023-01-19T01:27:52.065Z,4.65
2023-01-19T01:28:53.899Z,5.22
2023-01-19T01:29:56.718Z,5.53
2023-01-19T01:31:01.432Z,4.63
2023-01-19T01:32:04.234Z,4.95
2023-01-19T01:33:06.054Z,4.85
2023-01-19T01:34:08.678Z,4.50
2023-01-19T01:35:11.465Z,5.03
2023-01-19T01:36:14.587Z,4.30
2023-01-19T01:37:19.152Z,5.03
2023-01-19T01:38:21.786Z,5.78
2023-01-19T01:39:23.928Z,5.10
2023-01-19T01:40:29.851Z,4.45
2023-01-19T01:41:35.238Z,4.57
2023-01-19T01:42:36.992Z,4.45
2023-01-19T01:43:44.031Z,4.78
2023-01-19T01:44:54.527Z,5.50
2023-01-19T01:45:59.231Z,4.93
2023-01-19T01:47:02.726Z,5.82
2023-01-19T01:48:08.899Z,4.75
2023-01-19T01:49:16.381Z,4.63
2023-01-19T01:50:20.185Z,4.80
2023-01-19T01:51:39.152Z,5.53
2023-01-19T01:54:48.245Z,4.60
2023-01-19T01:59:03.731Z,4.50
2023-01-19T02:00:06.982Z,5.65
2023-01-19T02:01:29.130Z,5.68
2023-01-19T02:02:55.294Z,5.13
2023-01-19T02:09:16.773Z,4.50
2023-01-19T02:10:39.421Z,4.55
2023-01-19T02:12:00.853Z,4.75
2023-01-19T02:13:22.471Z,4.32
2023-01-19T02:14:24.949Z,5.03
2023-01-19T02:15:27.577Z,5.82
2023-01-19T02:16:30.270Z,5.25
2023-01-19T02:17:35.630Z,5.05
2023-01-19T02:18:38.068Z,6.00
2023-01-19T02:19:44.501Z,5.78
2023-01-19T02:20:53.465Z,6.18
2023-01-19T02:22:15.475Z,6.05
2023-01-19T02:24:21.336Z,5.95
2023-01-19T02:25:28.986Z,5.50
2023-01-19T02:26:33.737Z,6.45
2023-01-19T02:27:40.399Z,5.55
2023-01-19T02:28:44.554Z,6.10
2023-01-19T02:29:47.539Z,5.70
2023-01-19T02:30:50.017Z,5.95
2023-01-19T02:31:56.532Z,5.50
2023-01-19T02:33:01.142Z,6.00
2023-01-19T02:34:04.761Z,5.40
2023-01-19T02:35:07.183Z,6.45
2023-01-19T02:36:10.524Z,5.20
2023-01-19T02:37:17.457Z,5.70
2023-01-19T02:38:22.766Z,4.95
2023-01-19T02:39:39.009Z,5.15
2023-01-19T02:40:42.641Z,4.30
2023-01-19T02:41:55.045Z,5.32
2023-01-19T02:42:58.722Z,5.22
2023-01-19T02:44:03.395Z,5.03
2023-01-19T02:45:09.468Z,5.80
2023-01-19T02:46:15.770Z,5.65
2023-01-19T02:47:18.588Z,5.72
2023-01-19T02:48:21.838Z,5.25
2023-01-19T02:49:27.556Z,5.40
2023-01-19T02:50:52.619Z,5.72
2023-01-19T02:51:55.121Z,6.63
2023-01-19T02:53:03.271Z,5.45
2023-01-19T02:54:08.112Z,5.60
2023-01-19T02:55:28.629Z,5.22
2023-01-19T02:56:51.091Z,5.53
2023-01-19T02:58:04.650Z,5.50
2023-01-19T02:59:15.653Z,5.38
2023-01-19T03:00:22.525Z,6.43
2023-01-19T03:01:42.978Z,5.97
2023-01-19T03:02:51.184Z,5.15
2023-01-19T03:04:11.173Z,5.45
2023-01-19T03:05:17.498Z,5.30
2023-01-19T03:06:36.485Z,4.68
2023-01-19T03:07:57.521Z,6.03
2023-01-19T03:09:03.269Z,5.65
2023-01-19T03:10:11.841Z,5.55
2023-01-19T03:11:13.739Z,5.22
2023-01-19T03:12:18.755Z,5.22
2023-01-19T03:13:39.846Z,5.53
2023-01-19T03:14:45.781Z,4.65
2023-01-19T03:15:49.986Z,5.38
2023-01-19T03:16:57.163Z,5.82
2023-01-19T03:18:00.080Z,5.10
2023-01-19T03:19:08.195Z,5.95
2023-01-19T03:20:13.744Z,4.85
2023-01-19T03:21:16.505Z,5.50
2023-01-19T03:22:27.442Z,5.60
2023-01-19T03:23:30.526Z,4.90
2023-01-19T03:24:40.112Z,5.28
2023-01-19T03:25:43.394Z,6.03
2023-01-19T03:26:47.454Z,5.68
2023-01-19T03:27:52.698Z,4.07
2023-01-19T03:28:56.821Z,4.80
2023-01-19T03:30:11.545Z,4.55
2023-01-19T03:31:19.364Z,5.55
2023-01-19T03:32:25.030Z,5.72
2023-01-19T03:33:30.685Z,5.55
2023-01-19T03:34:35.338Z,4.78
2023-01-19T03:35:40.018Z,5.00
2023-01-19T03:36:51.440Z,5.38
2023-01-19T03:37:55.256Z,5.25
2023-01-19T03:39:01.580Z,5.63
2023-01-19T03:40:04.116Z,4.82
2023-01-19T03:41:09.227Z,4.57
2023-01-19T03:42:15.627Z,5.70
2023-01-19T03:43:18.798Z,4.75
2023-01-19T03:44:21.208Z,4.28
2023-01-19T03:45:23.304Z,4.88
2023-01-19T03:46:28.079Z,4.13
2023-01-19T03:47:32.307Z,5.28
2023-01-19T03:48:34.161Z,4.72
2023-01-19T03:49:38.327Z,4.90
2023-01-19T03:50:40.017Z,4.78
2023-01-19T03:51:42.801Z,5.15
2023-01-19T03:52:45.006Z,5.10
2023-01-19T03:53:50.309Z,5.35
2023-01-19T03:54:51.982Z,5.78
2023-01-19T03:55:54.351Z,5.97
2023-01-19T03:56:58.486Z,5.65
2023-01-19T03:58:00.245Z,5.55
2023-01-19T03:59:03.165Z,5.47
2023-01-19T04:00:27.066Z,5.22
2023-01-19T04:01:31.360Z,5.15
2023-01-19T04:02:37.182Z,4.75
2023-01-19T04:03:38.983Z,4.60
2023-01-19T04:04:42.027Z,4.72
2023-01-19T04:05:45.109Z,4.40
2023-01-19T04:06:46.948Z,4.20
2023-01-19T04:07:49.769Z,4.28
2023-01-19T04:08:52.033Z,4.47
2023-01-19T04:09:53.982Z,4.40
2023-01-19T04:10:57.665Z,4.68
2023-01-19T04:12:03.913Z,4.78
2023-01-19T04:13:06.640Z,4.43
2023-01-19T04:14:09.328Z,5.18
2023-01-19T04:15:11.371Z,4.53
2023-01-19T04:16:13.513Z,5.03
2023-01-19T04:17:16.162Z,4.38
2023-01-19T04:18:20.334Z,4.35
2023-01-19T04:19:21.941Z,4.63
2023-01-19T04:20:30.140Z,4.38
2023-01-19T04:21:33.925Z,3.75
2023-01-19T04:22:39.872Z,5.07
2023-01-19T04:23:41.348Z,4.90
2023-01-19T04:24:42.954Z,5.07
2023-01-19T04:25:49.946Z,5.00
2023-01-19T04:26:53.635Z,5.18
2023-01-19T04:27:58.620Z,4.57
2023-01-19T04:29:01.580Z,4.38
2023-01-19T04:30:04.717Z,5.15
2023-01-19T04:31:07.636Z,4.60
2023-01-19T04:32:12.288Z,4.93
2023-01-19T04:33:16.538Z,4.72
2023-01-19T04:34:19.001Z,4.57
2023-01-19T04:35:22.324Z,4.45
2023-01-19T04:36:24.038Z,4.18
2023-01-19T04:37:27.927Z,4.40
2023-01-19T04:38:29.966Z,4.80
2023-01-19T04:39:31.402Z,4.72
2023-01-19T04:41:38.211Z,4.78
2023-01-19T04:42:44.924Z,5.07
2023-01-19T04:43:47.808Z,4.75
2023-01-19T04:44:52.796Z,5.28
2023-01-19T04:45:54.984Z,4.47
2023-01-19T04:46:57.663Z,4.32
2023-01-19T04:48:00.018Z,5.28
2023-01-19T04:49:03.747Z,5.68
2023-01-19T04:50:08.836Z,4.80
2023-01-19T04:51:10.981Z,4.45
2023-01-19T04:52:12.996Z,4.88
2023-01-19T04:53:16.557Z,4.60
2023-01-19T04:54:19.278Z,4.53
2023-01-19T04:55:22.059Z,4.40
2023-01-19T04:56:23.969Z,3.97
2023-01-19T04:57:26.969Z,4.40
2023-01-19T04:58:28.963Z,5.88
2023-01-19T04:59:33.409Z,4.07
2023-01-19T05:00:35.488Z,5.35
2023-01-19T05:01:39.565Z,4.95
2023-01-19T05:02:44.220Z,5.05
2023-01-19T05:03:49.077Z,4.55
2023-01-19T05:04:51.348Z,5.57
2023-01-19T05:05:54.302Z,6.03
2023-01-19T05:06:58.370Z,5.47
2023-01-19T05:08:01.137Z,6.25
2023-01-19T05:09:06.078Z,5.75
2023-01-19T05:10:09.943Z,6.18
2023-01-19T05:11:11.967Z,6.63
2023-01-19T05:12:14.242Z,6.75
2023-01-19T05:13:16.041Z,5.22
2023-01-19T05:14:18.929Z,5.60
2023-01-19T05:15:20.999Z,5.30
2023-01-19T05:16:24.166Z,18.13
2023-01-19T05:17:28.233Z,5.00
2023-01-19T05:18:38.519Z,4.80
2023-01-19T05:19:40.029Z,6.57
2023-01-19T05:20:42.547Z,5.63
2023-01-19T05:21:45.145Z,5.40
2023-01-19T05:22:50.777Z,5.55
2023-01-19T05:23:54.806Z,5.43
2023-01-19T05:24:58.807Z,5.80
2023-01-19T05:26:01.989Z,5.70
2023-01-19T05:27:04.003Z,5.60
2023-01-19T05:28:05.467Z,5.90
2023-01-19T05:29:10.864Z,5.45
2023-01-19T05:30:13.658Z,4.95
2023-01-19T05:31:19.594Z,6.13
2023-01-19T05:32:22.528Z,6.03
2023-01-19T05:33:25.210Z,6.07
2023-01-19T05:34:27.804Z,5.97
2023-01-19T05:35:35.688Z,5.65
2023-01-19T05:36:38.192Z,6.63
2023-01-19T05:37:43.706Z,8.45
2023-01-19T05:38:49.009Z,7.85
2023-01-19T05:39:51.133Z,7.40
2023-01-19T05:40:57.479Z,7.03
2023-01-19T05:41:58.973Z,7.25
2023-01-19T05:43:04.530Z,7.95
2023-01-19T05:44:12.007Z,7.82
2023-01-19T05:45:14.633Z,10.18
2023-01-19T05:46:16.244Z,9.45
2023-01-19T05:47:20.301Z,8.45
2023-01-19T05:48:22.021Z,8.93
2023-01-19T05:49:24.030Z,7.30
2023-01-19T05:50:28.693Z,7.30
2023-01-19T05:51:35.381Z,7.53
2023-01-19T05:52:37.032Z,6.38
2023-01-19T05:53:38.530Z,6.85
2023-01-19T05:54:40.528Z,6.38
2023-01-19T05:55:43.536Z,7.50
2023-01-19T05:56:44.973Z,7.40
2023-01-19T05:58:49.998Z,6.57
2023-01-19T05:59:52.044Z,7.32
2023-01-19T06:00:54.110Z,7.72
2023-01-19T06:01:57.389Z,8.05
2023-01-19T06:03:03.505Z,8.60
2023-01-19T06:04:06.587Z,8.15
2023-01-19T06:05:09.292Z,10.43
2023-01-19T06:06:12.410Z,8.55
2023-01-19T06:07:14.026Z,7.53
2023-01-19T06:08:15.991Z,7.18
2023-01-19T06:09:18.084Z,6.43
2023-01-19T06:10:19.994Z,5.90
2023-01-19T06:11:23.042Z,6.40
2023-01-19T06:12:25.691Z,5.93
2023-01-19T06:13:30.387Z,6.18
2023-01-19T06:14:32.869Z,6.28
2023-01-19T06:15:34.309Z,5.10
2023-01-19T06:17:40.035Z,5.00
2023-01-19T06:18:44.633Z,5.97
2023-01-19T06:19:46.099Z,5.75
2023-01-19T06:20:48.004Z,5.65
2023-01-19T06:21:52.315Z,5.55
2023-01-19T06:22:57.175Z,6.13
2023-01-19T06:23:59.025Z,6.18
2023-01-19T06:25:01.135Z,6.60
2023-01-19T06:26:05.706Z,6.15
2023-01-19T06:27:07.479Z,5.28
2023-01-19T06:28:13.655Z,5.85
2023-01-19T06:29:16.082Z,5.43
2023-01-19T06:30:20.053Z,5.63
2023-01-19T06:31:22.128Z,5.60
2023-01-19T06:32:26.634Z,6.00
2023-01-19T06:33:30.031Z,6.50
2023-01-19T06:34:32.023Z,6.70
2023-01-19T06:35:34.041Z,7.25
2023-01-19T06:36:38.258Z,7.60
2023-01-19T06:37:40.497Z,7.68
2023-01-19T06:38:43.278Z,7.63
2023-01-19T06:39:45.913Z,7.82
2023-01-19T06:41:05.082Z,7.03
2023-01-19T06:42:10.917Z,8.25
2023-01-19T06:43:13.483Z,8.55
2023-01-19T06:44:15.213Z,8.75
2023-01-19T06:45:17.082Z,7.50
2023-01-19T06:46:19.001Z,7.93
2023-01-19T06:47:21.078Z,7.45
2023-01-19T06:48:23.263Z,7.35
2023-01-19T06:49:28.354Z,8.05
2023-01-19T06:50:30.034Z,7.55
2023-01-19T06:51:32.545Z,7.55
2023-01-19T06:52:34.822Z,6.78
2023-01-19T06:53:38.799Z,6.90
2023-01-19T06:54:41.082Z,6.40
2023-01-19T06:55:45.326Z,6.68
2023-01-19T06:56:47.161Z,6.82
2023-01-19T06:57:51.300Z,6.80
2023-01-19T06:58:53.794Z,7.13
2023-01-19T06:59:58.778Z,7.78
2023-01-19T07:01:04.622Z,7.50
2023-01-19T07:02:26.471Z,8.10
2023-01-19T07:03:31.913Z,8.02
2023-01-19T07:04:34.774Z,8.43
2023-01-19T07:05:37.062Z,9.40
2023-01-19T07:06:39.019Z,10.40
2023-01-19T07:07:44.128Z,10.18
2023-01-19T07:08:46.086Z,9.52
2023-01-19T07:09:48.188Z,10.15
2023-01-19T07:11:25.848Z,9.73
2023-01-19T07:12:15.519Z,9.80
2023-01-19T07:13:18.038Z,9.93
2023-01-19T07:14:23.171Z,8.27
2023-01-19T07:15:27.076Z,8.40
2023-01-19T07:16:33.112Z,7.32
2023-01-19T07:17:37.301Z,8.25
2023-01-19T07:18:40.769Z,8.20
2023-01-19T07:19:42.515Z,7.30
2023-01-19T07:20:46.911Z,7.65
2023-01-19T07:21:52.176Z,9.63
2023-01-19T07:22:56.952Z,7.50
2023-01-19T07:23:59.478Z,8.10
2023-01-19T07:25:07.534Z,8.55
2023-01-19T07:26:10.590Z,8.73
2023-01-19T07:27:13.271Z,12.90
2023-01-19T07:28:16.522Z,10.95
2023-01-19T07:29:28.117Z,10.35
2023-01-19T07:30:30.115Z,9.13
2023-01-19T07:31:33.064Z,9.65
2023-01-19T07:32:37.316Z,8.25
2023-01-19T07:33:39.234Z,8.55
2023-01-19T07:34:41.019Z,10.15
2023-01-19T08:00:13.093Z,8.13
2023-01-19T08:09:13.868Z,8.57
2023-01-19T08:10:34.765Z,8.50
2023-01-19T08:13:30.896Z,7.85
2023-01-19T08:14:58.447Z,7.90
2023-01-19T08:18:13.081Z,8.88
2023-01-19T08:18:13.979Z,8.57
2023-01-19T08:20:50.715Z,8.70
2023-01-19T08:22:07.511Z,8.55
2023-01-19T08:23:21.032Z,8.75
2023-01-19T08:24:53.636Z,8.20
2023-01-19T08:27:26.510Z,8.48
2023-01-19T08:28:50.052Z,11.15
2023-01-19T08:29:58.071Z,10.98
2023-01-19T08:31:18.482Z,9.75
2023-01-19T08:32:26.059Z,9.95
2023-01-19T08:33:27.933Z,9.23
2023-01-19T08:34:41.384Z,10.95
2023-01-19T08:36:18.663Z,11.48
2023-01-19T08:37:35.124Z,11.52
2023-01-19T08:40:25.892Z,11.75
2023-01-19T08:41:29.634Z,11.90
2023-01-19T08:42:43.801Z,11.13
2023-01-19T08:43:47.215Z,11.27
2023-01-19T08:44:58.159Z,11.00
2023-01-19T08:46:01.739Z,10.68
2023-01-19T08:47:04.794Z,10.88
2023-01-19T08:48:59.541Z,10.63
2023-01-19T08:53:01.150Z,9.90
2023-01-19T08:54:20.152Z,8.40
2023-01-19T08:56:04.782Z,10.30
2023-01-19T08:57:12.571Z,8.80
2023-01-19T08:58:40.837Z,8.70
2023-01-19T09:01:57.331Z,7.82
2023-01-19T09:18:46.629Z,8.98
2023-01-19T09:22:41.907Z,11.32
2023-01-19T09:23:48.737Z,14.27
2023-01-19T09:24:59.384Z,13.00
2023-01-19T09:26:12.392Z,12.45
2023-01-19T09:29:56.331Z,9.85
2023-01-19T09:31:02.078Z,8.75
2023-01-19T09:32:05.536Z,9.50
2023-01-19T09:33:18.448Z,10.32
2023-01-19T09:34:25.285Z,9.05
2023-01-19T09:35:28.513Z,9.48
2023-01-19T09:36:44.763Z,8.45
2023-01-19T09:39:37.349Z,6.90
2023-01-19T09:40:52.218Z,7.07
2023-01-19T09:42:00.220Z,7.43
2023-01-19T09:43:35.745Z,9.18
2023-01-19T09:44:38.080Z,8.15
2023-01-19T09:45:42.284Z,7.55
2023-01-19T09:46:44.151Z,7.60
2023-01-19T09:47:50.945Z,6.25
2023-01-19T09:49:05.763Z,6.97
2023-01-19T09:50:16.909Z,7.10
2023-01-19T09:51:20.848Z,6.22
2023-01-19T09:52:25.323Z,6.20
2023-01-19T09:53:48.996Z,6.60
2023-01-19T09:55:18.910Z,5.60
2023-01-19T09:56:23.524Z,5.80
2023-01-19T09:57:52.445Z,5.53
2023-01-19T10:01:00.048Z,5.57
2023-01-19T10:02:09.580Z,5.82
2023-01-19T10:03:16.287Z,4.88
2023-01-19T10:08:22.173Z,5.18
2023-01-19T10:10:57.824Z,5.30
2023-01-19T10:12:26.071Z,5.40
2023-01-19T10:17:12.768Z,4.80
2023-01-19T10:18:42.847Z,5.13
2023-01-19T10:20:08.767Z,4.47
2023-01-19T10:24:32.404Z,5.22
2023-01-19T10:26:43.897Z,5.57
2023-01-19T10:28:12.077Z,4.85
2023-01-19T10:29:39.761Z,5.15
2023-01-19T10:31:23.753Z,5.93
2023-01-19T10:36:58.303Z,4.50
2023-01-19T10:38:42.445Z,6.20
2023-01-19T10:40:22.978Z,5.45
2023-01-19T10:43:02.424Z,5.70
2023-01-19T10:44:33.367Z,5.35
2023-01-19T10:49:06.181Z,4.70
2023-01-19T10:51:59.000Z,5.32
2023-01-19T10:54:43.194Z,4.60
2023-01-19T10:55:48.762Z,4.30
2023-01-19T10:56:59.478Z,4.22
2023-01-19T10:58:27.908Z,4.97
2023-01-19T11:05:43.761Z,4.43
2023-01-19T11:07:00.048Z,4.25
2023-01-19T11:08:12.653Z,4.10
2023-01-19T11:09:21.259Z,5.00
2023-01-19T11:10:30.236Z,3.70
2023-01-19T11:12:05.220Z,4.63
2023-01-19T11:13:13.114Z,5.07
2023-01-19T11:14:20.856Z,6.13
2023-01-19T11:15:35.355Z,5.10
2023-01-19T11:18:31.893Z,4.85
2023-01-19T11:20:53.982Z,3.92
2023-01-19T11:22:34.595Z,3.80
2023-01-19T11:23:42.854Z,3.45
2023-01-19T11:24:45.634Z,2.97
2023-01-19T11:25:52.094Z,3.20
2023-01-19T11:27:04.932Z,3.50
2023-01-19T11:28:15.293Z,3.35
2023-01-19T11:29:20.681Z,3.45
2023-01-19T11:30:25.091Z,3.67
2023-01-19T11:31:31.739Z,3.22
2023-01-19T11:32:38.013Z,3.10
2023-01-19T11:33:58.113Z,3.08
2023-01-19T11:35:02.374Z,3.10
2023-01-19T11:36:24.853Z,2.78
2023-01-19T11:37:28.355Z,2.92
2023-01-19T11:38:32.008Z,2.85
2023-01-19T11:39:49.983Z,3.05
2023-01-19T11:40:58.542Z,2.72
2023-01-19T11:42:10.027Z,2.50
2023-01-19T11:43:13.214Z,2.42
2023-01-19T11:44:15.943Z,2.38
2023-01-19T11:45:22.116Z,3.40
2023-01-19T11:46:26.813Z,2.60
2023-01-19T11:47:40.612Z,2.13
2023-01-19T11:48:46.952Z,2.30
2023-01-19T11:50:07.771Z,2.58
2023-01-19T11:51:16.109Z,2.53
2023-01-19T11:52:40.772Z,2.10
2023-01-19T11:53:47.470Z,2.08
2023-01-19T11:54:57.412Z,2.85
2023-01-19T11:56:11.907Z,2.13
2023-01-19T12:01:28.805Z,3.47
2023-01-19T12:06:32.769Z,2.83
2023-01-19T12:07:59.871Z,2.60
2023-01-19T12:09:27.277Z,2.67
2023-01-19T12:10:39.105Z,2.40
2023-01-19T12:13:34.090Z,2.80
2023-01-19T12:14:55.848Z,2.88
2023-01-19T12:16:10.811Z,2.90
2023-01-19T12:17:22.591Z,2.47
2023-01-19T12:19:37.795Z,2.88
2023-01-19T12:20:49.639Z,3.85
2023-01-19T12:21:56.473Z,3.40
2023-01-19T12:23:22.467Z,2.97
2023-01-19T12:24:44.728Z,2.63
2023-01-19T12:26:05.969Z,3.10
2023-01-19T12:27:28.072Z,3.25
2023-01-19T12:28:31.833Z,3.08
2023-01-19T12:29:36.106Z,3.47
2023-01-19T12:30:41.948Z,4.95
2023-01-19T12:31:44.262Z,3.22
2023-01-19T12:32:51.071Z,3.33
2023-01-19T12:33:56.762Z,3.33
2023-01-19T12:34:58.496Z,3.25
2023-01-19T12:36:32.357Z,3.05
2023-01-19T12:37:37.627Z,3.10
2023-01-19T12:38:58.227Z,4.03
2023-01-19T12:40:03.148Z,3.13
2023-01-19T12:42:15.008Z,3.58
2023-01-19T12:43:17.155Z,3.67
2023-01-19T12:44:23.353Z,3.40
2023-01-19T12:45:28.847Z,3.60
2023-01-19T12:46:31.406Z,3.35
2023-01-19T12:47:33.271Z,3.63
2023-01-19T12:48:38.748Z,3.88
2023-01-19T12:49:52.212Z,5.63
2023-01-19T12:50:53.848Z,3.42
2023-01-19T12:52:12.004Z,4.38
2023-01-19T12:53:19.280Z,4.65
2023-01-19T12:54:32.827Z,4.30
2023-01-19T12:55:39.276Z,4.43
2023-01-19T12:56:40.924Z,4.28
2023-01-19T12:58:06.072Z,4.00
2023-01-19T12:59:22.314Z,3.30
2023-01-19T13:00:23.909Z,3.45
2023-01-19T13:01:29.659Z,3.63
2023-01-19T13:02:46.607Z,3.95
2023-01-19T13:04:12.024Z,3.88
2023-01-19T13:05:22.135Z,3.75
2023-01-19T13:06:45.767Z,3.25
2023-01-19T13:08:06.518Z,4.07
2023-01-19T13:09:30.747Z,3.22
2023-01-19T13:10:55.028Z,3.47
2023-01-19T13:12:20.908Z,3.35
2023-01-19T13:13:26.263Z,3.38
2023-01-19T13:14:40.040Z,3.30
2023-01-19T13:15:42.711Z,3.42
2023-01-19T13:16:52.561Z,3.08
2023-01-19T13:17:55.055Z,3.40
2023-01-19T13:19:12.923Z,3.85
2023-01-19T13:20:31.253Z,4.65
2023-01-19T13:21:54.001Z,3.55
2023-01-19T13:23:16.041Z,3.67
2023-01-19T13:24:22.882Z,3.15
2023-01-19T13:25:35.101Z,2.78
2023-01-19T13:26:52.200Z,3.38
2023-01-19T13:27:54.239Z,2.95
2023-01-19T13:29:01.006Z,3.90
2023-01-19T13:30:05.504Z,5.22
2023-01-19T13:31:12.589Z,4.40
2023-01-19T13:32:21.485Z,3.70
2023-01-19T13:36:28.587Z,3.72
2023-01-19T13:37:37.218Z,3.78
2023-01-19T14:01:39.668Z,3.70
2023-01-19T14:04:51.945Z,5.10
2023-01-19T14:05:58.300Z,4.03
2023-01-19T14:11:23.552Z,3.95
2023-01-19T14:12:28.107Z,3.80
2023-01-19T14:14:07.979Z,4.55
2023-01-19T14:15:17.403Z,5.05
2023-01-19T14:19:20.678Z,4.30
2023-01-19T14:20:30.839Z,4.30
2023-01-19T14:21:46.208Z,4.50
2023-01-19T14:22:51.257Z,4.10
2023-01-19T14:23:58.237Z,4.15
2023-01-19T14:27:22.290Z,4.63
2023-01-19T14:28:28.820Z,4.00
2023-01-19T14:31:32.190Z,6.15
2023-01-19T14:33:00.113Z,5.43
2023-01-19T14:34:02.670Z,4.85
2023-01-19T14:35:11.226Z,4.22
2023-01-19T14:36:34.999Z,4.15
2023-01-19T14:37:52.354Z,4.57
2023-01-19T14:39:25.876Z,4.88
2023-01-19T14:40:33.132Z,5.60
2023-01-19T14:45:33.935Z,4.60
2023-01-19T14:48:40.712Z,4.50
2023-01-19T14:54:17.618Z,4.57
2023-01-19T14:57:44.760Z,4.40
2023-01-19T14:59:27.146Z,4.15
2023-01-19T15:02:11.851Z,4.43
2023-01-19T15:03:46.699Z,4.32
2023-01-19T15:08:54.128Z,6.13
2023-01-19T15:12:05.726Z,3.90
2023-01-19T15:13:42.778Z,4.15
2023-01-19T15:22:01.195Z,4.60
2023-01-19T15:23:11.812Z,4.90
2023-01-19T15:24:17.830Z,4.32
2023-01-19T15:26:47.834Z,5.25
2023-01-19T15:28:32.323Z,4.05
2023-01-19T15:30:29.508Z,3.65
2023-01-19T15:31:33.330Z,4.07
2023-01-19T15:32:44.418Z,4.60
2023-01-19T15:33:48.226Z,4.00
2023-01-19T15:35:29.752Z,3.95
2023-01-19T15:38:30.541Z,4.88
2023-01-19T15:39:53.870Z,4.22
2023-01-19T15:42:22.451Z,8.50
2023-01-19T15:43:28.285Z,4.35
2023-01-19T15:44:35.189Z,3.78
2023-01-19T15:46:14.793Z,3.90
2023-01-19T15:47:21.538Z,4.13
2023-01-19T15:50:03.901Z,3.75
2023-01-19T15:52:47.260Z,4.03
2023-01-19T15:55:21.624Z,4.27
2023-01-19T15:56:29.047Z,3.80
2023-01-19T15:57:30.968Z,4.03
2023-01-19T15:58:32.967Z,4.00
2023-01-19T15:59:34.960Z,4.22
2023-01-19T16:00:39.599Z,3.63
2023-01-19T16:01:44.680Z,3.38
2023-01-19T16:02:50.744Z,4.20
2023-01-19T16:03:53.265Z,3.60
2023-01-19T16:04:54.961Z,3.55
2023-01-19T16:06:00.125Z,3.83
2023-01-19T16:07:01.599Z,4.03
2023-01-19T16:08:03.169Z,4.03
2023-01-19T16:09:07.969Z,4.03
2023-01-19T16:10:11.660Z,3.85
2023-01-19T16:11:14.844Z,4.30
2023-01-19T16:12:20.856Z,4.47
2023-01-19T16:13:23.140Z,4.40
2023-01-19T16:14:25.838Z,4.65
2023-01-19T16:15:27.992Z,4.40
2023-01-19T16:16:30.778Z,4.65
2023-01-19T16:17:32.995Z,5.30
2023-01-19T16:18:35.002Z,5.57
2023-01-19T16:19:37.007Z,5.55
2023-01-19T16:20:39.052Z,5.75
2023-01-19T16:21:43.974Z,5.95
2023-01-19T16:22:45.987Z,5.75
2023-01-19T16:23:50.928Z,5.28
2023-01-19T16:24:53.253Z,5.45
2023-01-19T16:25:59.545Z,5.70
2023-01-19T16:27:05.377Z,5.82
2023-01-19T16:28:10.774Z,5.80
2023-01-19T16:29:12.987Z,5.60
2023-01-19T16:30:17.121Z,6.30
2023-01-19T16:31:20.199Z,6.60
2023-01-19T16:32:22.012Z,6.20
2023-01-19T16:33:25.085Z,5.65
2023-01-19T16:34:29.372Z,5.60
2023-01-19T16:35:34.457Z,5.40
2023-01-19T16:36:39.452Z,5.90
2023-01-19T16:37:45.477Z,5.53
2023-01-19T16:38:47.004Z,6.07
2023-01-19T16:39:51.874Z,7.32
2023-01-19T16:40:54.033Z,9.02
2023-01-19T16:41:56.009Z,9.90
2023-01-19T16:42:58.337Z,10.05
2023-01-19T16:44:01.194Z,8.68
2023-01-19T16:45:04.200Z,8.50
2023-01-19T16:46:09.121Z,8.57
2023-01-19T16:47:12.039Z,8.00
2023-01-19T16:48:16.151Z,7.90
2023-01-19T16:49:23.258Z,9.80
2023-01-19T16:50:25.038Z,9.88
2023-01-19T16:51:29.275Z,11.93
2023-01-19T16:52:31.034Z,10.57
2023-01-19T16:53:37.157Z,10.25
2023-01-19T16:54:41.017Z,10.07
2023-01-19T16:55:43.114Z,9.27
2023-01-19T16:56:48.113Z,9.15
2023-01-19T16:57:50.063Z,9.30
2023-01-19T16:58:56.017Z,9.73
2023-01-19T17:00:00.042Z,9.25
2023-01-19T17:01:08.241Z,8.70
2023-01-19T17:02:11.414Z,8.02
2023-01-19T17:03:13.001Z,7.93
2023-01-19T17:04:14.623Z,9.10
2023-01-19T17:05:17.327Z,8.75
2023-01-19T17:06:24.053Z,8.60
2023-01-19T17:07:27.806Z,8.70
2023-01-19T17:08:30.050Z,9.32
2023-01-19T17:09:32.556Z,9.35
2023-01-19T17:10:39.934Z,9.15
2023-01-19T17:11:42.244Z,9.35
2023-01-19T17:12:44.008Z,9.32
2023-01-19T17:13:49.286Z,9.32
2023-01-19T17:14:51.069Z,6.82
2023-01-19T17:15:58.523Z,6.72
2023-01-19T17:17:02.711Z,7.03
2023-01-19T17:18:05.449Z,6.97
2023-01-19T17:19:08.679Z,7.78
2023-01-19T17:20:11.830Z,7.43
2023-01-19T17:21:18.223Z,7.25
2023-01-19T17:22:20.075Z,7.72
2023-01-19T17:23:24.148Z,7.07
2023-01-19T17:24:26.056Z,9.15
2023-01-19T17:25:28.116Z,7.68
2023-01-19T17:26:33.279Z,6.80
2023-01-19T17:27:38.074Z,6.38
2023-01-19T17:28:41.230Z,6.40
2023-01-19T17:29:43.047Z,6.57
2023-01-19T17:30:45.156Z,7.10
2023-01-19T17:31:49.538Z,6.65
2023-01-19T17:32:52.173Z,7.00
2023-01-19T17:33:54.075Z,7.70
2023-01-19T17:34:56.018Z,7.22
2023-01-19T17:36:07.810Z,6.70
2023-01-19T17:37:10.862Z,7.13
2023-01-19T17:38:14.315Z,6.75
2023-01-19T17:39:21.038Z,6.70
2023-01-19T17:40:26.078Z,6.65
2023-01-19T17:41:30.132Z,6.40
2023-01-19T17:42:32.026Z,7.00
2023-01-19T17:43:34.555Z,7.45
2023-01-19T17:44:39.270Z,7.93
2023-01-19T17:45:43.599Z,7.50
2023-01-19T17:46:46.091Z,6.95
2023-01-19T17:47:50.602Z,7.18
2023-01-19T17:48:54.186Z,7.68
2023-01-19T17:49:56.808Z,8.00
2023-01-19T17:51:03.063Z,7.72
2023-01-19T17:52:04.674Z,7.78
2023-01-19T17:53:10.730Z,7.05
2023-01-19T17:54:14.524Z,6.60
2023-01-19T17:55:18.416Z,5.85
2023-01-19T17:56:22.015Z,5.97
2023-01-19T17:57:24.092Z,6.50
2023-01-19T17:58:29.395Z,6.72
2023-01-19T17:59:32.694Z,7.07
2023-01-19T18:00:35.310Z,6.95
2023-01-19T18:01:42.341Z,6.30
2023-01-19T18:02:44.530Z,6.40
2023-01-19T18:03:50.126Z,9.18
2023-01-19T18:04:52.977Z,11.90
2023-01-19T18:05:55.714Z,11.95
2023-01-19T18:07:00.346Z,13.43
2023-01-19T18:08:02.864Z,13.07
2023-01-19T18:09:09.710Z,13.10
2023-01-19T18:10:12.676Z,12.45
2023-01-19T18:11:16.875Z,12.43
2023-01-19T18:12:22.612Z,12.02
2023-01-19T18:13:26.037Z,13.02
2023-01-19T18:14:28.075Z,11.93
2023-01-19T18:15:30.424Z,12.27
2023-01-19T18:16:32.937Z,12.73
2023-01-19T18:17:35.057Z,9.13
2023-01-19T18:18:39.234Z,8.70
2023-01-19T18:19:41.682Z,10.70
2023-01-19T18:20:44.696Z,10.27
2023-01-19T18:21:49.269Z,11.38